createdAt,value
2023-02-17T00:01:36.183Z,2.70
2023-02-17T00:04:04.507Z,2.70
2023-02-17T00:06:33.316Z,2.80
2023-02-17T00:09:02.000Z,2.80
2023-02-17T00:11:30.602Z,2.90
2023-02-17T00:14:00.349Z,2.90
2023-02-17T00:16:30.130Z,3.00
2023-02-17T00:19:01.083Z,3.10
2023-02-17T00:21:31.248Z,3.20
2023-02-17T00:24:00.227Z,3.30
2023-02-17T00:26:28.706Z,3.40
2023-02-17T00:28:56.876Z,3.50
2023-02-17T00:31:25.381Z,3.40
2023-02-17T00:33:57.628Z,3.60
2023-02-17T00:36:29.878Z,3.80
2023-02-17T00:38:59.695Z,3.80
2023-02-17T00:41:29.109Z,3.80
2023-02-17T00:43:59.301Z,3.80
2023-02-17T00:46:29.233Z,3.90
2023-02-17T00:48:59.154Z,3.80
2023-02-17T00:51:27.612Z,3.80
2023-02-17T00:53:55.862Z,3.80
2023-02-17T00:56:24.084Z,3.80
2023-02-17T00:58:52.380Z,3.80
2023-02-17T01:01:20.770Z,3.80
2023-02-17T01:03:49.045Z,3.80
2023-02-17T01:06:24.534Z,3.70
2023-02-17T01:08:52.971Z,3.70
2023-02-17T01:11:23.321Z,3.70
2023-02-17T01:13:52.319Z,3.80
2023-02-17T01:16:23.388Z,3.80
2023-02-17T01:18:51.756Z,3.80
2023-02-17T01:21:24.467Z,3.80
2023-02-17T01:23:54.024Z,3.80
2023-02-17T01:26:24.494Z,3.80
2023-02-17T01:28:53.945Z,3.80
2023-02-17T01:31:23.848Z,3.80
2023-02-17T01:33:52.149Z,3.90
2023-02-17T01:36:22.130Z,3.80
2023-02-17T01:38:50.881Z,3.80
2023-02-17T01:41:22.001Z,3.70
2023-02-17T01:44:13.042Z,4.00
2023-02-17T01:46:42.637Z,3.80
2023-02-17T01:49:30.448Z,3.80
2023-02-17T01:52:08.235Z,3.80
2023-02-17T01:54:42.503Z,3.80
2023-02-17T01:57:12.769Z,3.80
2023-02-17T01:59:43.313Z,3.80
2023-02-17T02:02:12.504Z,3.80
2023-02-17T02:04:46.527Z,3.80
2023-02-17T02:07:21.693Z,3.80
2023-02-17T02:09:56.132Z,3.80
2023-02-17T02:12:26.734Z,3.80
2023-02-17T02:14:58.755Z,3.80
2023-02-17T02:17:38.573Z,3.80
2023-02-17T02:20:42.757Z,3.80
2023-02-17T02:23:39.375Z,3.80
2023-02-17T02:26:44.336Z,3.80
2023-02-17T02:29:29.558Z,3.80
2023-02-17T02:32:10.143Z,3.80
2023-02-17T02:34:46.577Z,3.80
2023-02-17T02:37:18.929Z,3.80
2023-02-17T02:39:51.936Z,3.80
2023-02-17T02:42:24.012Z,3.80
2023-02-17T02:44:52.629Z,3.80
2023-02-17T02:47:45.244Z,3.80
2023-02-17T02:50:21.339Z,3.80
2023-02-17T02:53:00.100Z,3.80
2023-02-17T02:55:38.596Z,3.80
2023-02-17T02:58:12.538Z,3.80
2023-02-17T03:00:47.698Z,3.80
2023-02-17T03:03:21.335Z,3.80
2023-02-17T03:05:56.422Z,3.90
2023-02-17T03:08:30.221Z,4.00
2023-02-17T03:10:59.253Z,3.90
2023-02-17T03:13:27.739Z,3.90
2023-02-17T03:15:56.048Z,3.90
2023-02-17T03:18:24.305Z,3.90
2023-02-17T03:20:56.169Z,3.90
2023-02-17T03:23:26.228Z,3.90
2023-02-17T03:25:54.507Z,3.90
2023-02-17T03:28:22.805Z,3.90
2023-02-17T03:30:52.926Z,3.90
2023-02-17T03:33:21.169Z,3.90
2023-02-17T03:35:49.460Z,3.90
2023-02-17T03:38:19.045Z,4.00
2023-02-17T03:40:47.283Z,3.90
2023-02-17T03:43:17.943Z,3.90
2023-02-17T03:45:46.441Z,3.90
2023-02-17T03:48:14.657Z,3.80
2023-02-17T03:50:42.828Z,3.80
2023-02-17T03:53:12.384Z,3.90
2023-02-17T03:55:42.018Z,3.80
2023-02-17T03:58:10.235Z,3.80
2023-02-17T04:00:38.436Z,3.80
2023-02-17T04:03:06.753Z,3.80
2023-02-17T04:05:35.030Z,3.90
2023-02-17T04:08:03.332Z,3.90
2023-02-17T04:10:31.586Z,3.80
2023-02-17T04:13:01.257Z,3.90
2023-02-17T04:15:29.979Z,3.80
2023-02-17T04:17:58.180Z,3.90
2023-02-17T04:20:26.468Z,3.90
2023-02-17T04:22:54.630Z,3.90
2023-02-17T04:25:23.530Z,3.90
2023-02-17T04:27:51.876Z,3.90
2023-02-17T04:30:21.774Z,3.90
2023-02-17T04:32:50.066Z,3.90
2023-02-17T04:35:18.541Z,3.90
2023-02-17T04:37:46.746Z,3.90
2023-02-17T04:40:15.501Z,4.00
2023-02-17T04:42:43.719Z,4.00
2023-02-17T04:45:12.625Z,4.00
2023-02-17T04:47:42.381Z,4.00
2023-02-17T04:50:11.718Z,4.00
2023-02-17T04:52:40.063Z,4.00
2023-02-17T04:55:09.267Z,4.00
2023-02-17T04:57:37.689Z,4.00
2023-02-17T05:00:07.537Z,4.00
2023-02-17T05:02:35.967Z,3.90
2023-02-17T05:05:05.742Z,3.90
2023-02-17T05:07:34.060Z,4.00
2023-02-17T05:10:02.281Z,4.00
2023-02-17T05:12:30.478Z,4.00
2023-02-17T05:14:58.664Z,4.00
2023-02-17T05:17:26.987Z,4.10
2023-02-17T05:19:55.187Z,4.10
2023-02-17T05:22:24.809Z,4.10
2023-02-17T05:24:53.160Z,4.00
2023-02-17T05:27:21.910Z,4.00
2023-02-17T05:29:51.574Z,4.00
2023-02-17T05:32:19.821Z,4.00
2023-02-17T05:34:48.023Z,4.10
2023-02-17T05:37:16.315Z,4.10
2023-02-17T05:39:46.026Z,4.10
2023-02-17T05:42:14.205Z,4.10
2023-02-17T05:44:42.448Z,4.10
2023-02-17T05:47:11.036Z,4.10
2023-02-17T05:49:39.209Z,4.10
2023-02-17T05:52:07.439Z,4.10
2023-02-17T05:54:35.731Z,4.00
2023-02-17T05:57:05.784Z,4.10
2023-02-17T05:59:34.029Z,4.10
2023-02-17T06:02:02.221Z,4.10
2023-02-17T06:04:30.465Z,4.10
2023-02-17T06:06:58.648Z,4.10
2023-02-17T06:09:26.960Z,4.10
2023-02-17T06:11:55.124Z,4.10
2023-02-17T06:14:24.722Z,4.10
2023-02-17T06:16:53.796Z,4.10
2023-02-17T06:19:21.998Z,4.10
2023-02-17T06:21:50.225Z,4.10
2023-02-17T06:24:18.472Z,4.10
2023-02-17T06:26:46.643Z,4.10
2023-02-17T06:29:14.908Z,4.10
2023-02-17T06:31:44.581Z,4.10
2023-02-17T06:34:12.971Z,4.10
2023-02-17T06:36:41.178Z,4.10
2023-02-17T06:39:09.438Z,4.20
2023-02-17T06:41:37.698Z,4.30
2023-02-17T06:44:06.082Z,4.20
2023-02-17T06:46:34.329Z,4.20
2023-02-17T06:49:03.957Z,4.20
2023-02-17T06:51:32.277Z,4.20
2023-02-17T06:54:00.478Z,4.30
2023-02-17T06:56:28.731Z,4.40
2023-02-17T06:58:57.027Z,4.40
2023-02-17T07:01:26.962Z,4.40
2023-02-17T07:03:55.890Z,4.40
2023-02-17T07:06:26.846Z,4.50
2023-02-17T07:08:55.196Z,4.50
2023-02-17T07:11:23.405Z,4.50
2023-02-17T07:13:51.611Z,4.60
2023-02-17T07:16:19.838Z,4.60
2023-02-17T07:18:48.071Z,4.60
2023-02-17T07:21:16.481Z,4.60
2023-02-17T07:23:46.159Z,4.60
2023-02-17T07:26:14.452Z,4.70
2023-02-17T07:28:42.997Z,4.80
2023-02-17T07:31:13.391Z,4.80
2023-02-17T07:33:42.676Z,4.90
2023-02-17T07:36:12.682Z,4.90
2023-02-17T07:38:42.104Z,5.00
2023-02-17T07:41:15.005Z,5.00
2023-02-17T07:43:43.707Z,5.10
2023-02-17T07:46:13.010Z,5.20
2023-02-17T07:48:41.462Z,5.20
2023-02-17T07:51:11.420Z,5.20
2023-02-17T07:53:40.571Z,5.10
2023-02-17T07:56:12.100Z,5.10
2023-02-17T07:58:42.397Z,5.10
2023-02-17T08:01:12.246Z,5.10
2023-02-17T08:03:41.293Z,5.10
2023-02-17T08:06:11.908Z,5.00
2023-02-17T08:08:57.381Z,5.10
2023-02-17T08:11:46.061Z,5.00
2023-02-17T08:14:15.685Z,5.00
2023-02-17T08:16:44.105Z,5.20
2023-02-17T08:19:12.564Z,5.20
2023-02-17T08:21:41.007Z,5.30
2023-02-17T08:24:09.464Z,5.30
2023-02-17T08:26:39.101Z,5.40
2023-02-17T08:29:07.438Z,5.30
2023-02-17T08:31:37.683Z,5.40
2023-02-17T08:34:07.988Z,5.30
2023-02-17T08:36:37.607Z,5.30
2023-02-17T08:39:07.529Z,5.30
2023-02-17T08:41:39.373Z,5.30
2023-02-17T08:44:10.375Z,5.40
2023-02-17T08:46:38.993Z,5.40
2023-02-17T08:49:08.054Z,5.30
2023-02-17T08:51:37.020Z,5.40
2023-02-17T08:54:08.046Z,5.30
2023-02-17T08:56:38.574Z,5.40
2023-02-17T08:59:07.433Z,5.40
2023-02-17T09:01:36.164Z,5.40
2023-02-17T09:04:06.112Z,5.50
2023-02-17T09:06:36.303Z,5.50
2023-02-17T09:09:06.256Z,5.50
2023-02-17T09:11:34.650Z,5.50
2023-02-17T09:14:04.853Z,5.60
2023-02-17T09:16:33.217Z,5.70
2023-02-17T09:19:01.512Z,5.70
2023-02-17T09:21:29.784Z,5.80
2023-02-17T09:23:58.154Z,5.80
2023-02-17T09:26:26.499Z,5.90
2023-02-17T09:28:54.786Z,5.90
2023-02-17T09:31:26.142Z,6.00
2023-02-17T09:33:55.394Z,6.10
2023-02-17T09:36:26.099Z,6.10
2023-02-17T09:38:54.982Z,6.10
2023-02-17T09:41:25.601Z,6.10
2023-02-17T09:43:55.812Z,6.10
2023-02-17T09:46:30.287Z,6.10
2023-02-17T09:49:04.650Z,6.10
2023-02-17T09:51:38.881Z,6.00
2023-02-17T09:54:13.427Z,6.00
2023-02-17T09:56:46.189Z,6.00
2023-02-17T09:59:19.713Z,5.90
2023-02-17T10:01:51.666Z,5.80
2023-02-17T10:04:25.249Z,5.80
2023-02-17T10:06:57.402Z,5.70
2023-02-17T10:09:31.804Z,5.70
2023-02-17T10:12:03.895Z,5.60
2023-02-17T10:14:37.272Z,5.50
2023-02-17T10:17:11.454Z,5.50
2023-02-17T10:19:48.624Z,5.60
2023-02-17T10:22:19.868Z,5.50
2023-02-17T10:24:48.266Z,5.60
2023-02-17T10:27:37.490Z,5.60
2023-02-17T10:30:27.729Z,5.60
2023-02-17T10:33:02.186Z,5.60
2023-02-17T10:35:43.515Z,5.60
2023-02-17T10:38:17.638Z,5.60
2023-02-17T10:40:51.332Z,5.60
2023-02-17T10:43:25.635Z,5.70
2023-02-17T10:45:54.175Z,5.70
2023-02-17T10:48:26.158Z,5.70
2023-02-17T10:50:58.010Z,5.80
2023-02-17T10:53:31.248Z,5.80
2023-02-17T10:56:04.575Z,5.80
2023-02-17T10:58:36.470Z,5.90
2023-02-17T11:01:06.542Z,5.90
2023-02-17T11:03:38.445Z,5.90
2023-02-17T11:06:17.024Z,5.90
2023-02-17T11:08:50.114Z,5.90
2023-02-17T11:11:20.776Z,5.90
2023-02-17T11:14:10.737Z,5.90
2023-02-17T11:16:41.306Z,5.90
2023-02-17T11:19:23.658Z,5.90
2023-02-17T11:21:52.749Z,6.00
2023-02-17T11:24:21.198Z,6.00
2023-02-17T11:26:58.386Z,6.00
2023-02-17T11:29:26.630Z,6.10
2023-02-17T11:31:56.889Z,6.00
2023-02-17T11:34:29.111Z,6.10
2023-02-17T11:37:03.104Z,6.10
2023-02-17T11:39:31.500Z,6.10
2023-02-17T11:41:59.742Z,6.20
2023-02-17T11:44:29.480Z,6.20
2023-02-17T11:47:08.284Z,6.20
2023-02-17T11:50:02.125Z,6.30
2023-02-17T11:52:49.515Z,6.40
2023-02-17T11:55:23.704Z,6.50
2023-02-17T11:58:10.070Z,6.50
2023-02-17T12:00:47.647Z,6.50
2023-02-17T12:03:58.828Z,6.50
2023-02-17T12:06:38.062Z,6.50
2023-02-17T12:09:18.644Z,6.50
2023-02-17T12:11:52.698Z,6.50
2023-02-17T12:14:41.085Z,6.50
2023-02-17T12:17:18.913Z,6.60
2023-02-17T12:19:54.446Z,6.60
2023-02-17T12:22:31.899Z,6.60
2023-02-17T12:25:26.871Z,6.50
2023-02-17T12:28:06.920Z,6.60
2023-02-17T12:30:48.235Z,6.60
2023-02-17T12:33:36.009Z,6.60
2023-02-17T12:36:08.992Z,6.60
2023-02-17T12:38:42.930Z,6.60
2023-02-17T12:41:16.185Z,6.60
2023-02-17T12:43:49.428Z,6.60
2023-02-17T12:46:21.224Z,6.60
2023-02-17T12:48:53.328Z,6.60
2023-02-17T12:51:27.392Z,6.60
2023-02-17T12:54:00.671Z,6.60
2023-02-17T12:56:58.414Z,6.60
2023-02-17T12:59:33.040Z,6.60
2023-02-17T13:02:03.327Z,6.70
2023-02-17T13:04:33.684Z,6.70
2023-02-17T13:07:21.361Z,6.70
2023-02-17T13:09:52.507Z,6.70
2023-02-17T13:12:41.649Z,6.70
2023-02-17T13:15:38.441Z,6.70
2023-02-17T13:18:12.428Z,6.70
2023-02-17T13:20:59.039Z,6.80
2023-02-17T13:23:30.763Z,6.80
2023-02-17T13:26:30.044Z,6.80
2023-02-17T13:29:34.724Z,6.80
2023-02-17T13:32:05.533Z,6.80
2023-02-17T13:34:36.293Z,6.80
2023-02-17T13:37:18.414Z,6.90
2023-02-17T13:39:47.409Z,6.90
2023-02-17T13:42:45.291Z,6.80
2023-02-17T13:45:24.080Z,6.80
2023-02-17T13:47:53.838Z,6.80
2023-02-17T13:50:34.525Z,6.80
2023-02-17T13:53:04.063Z,6.70
2023-02-17T13:55:32.362Z,6.80
2023-02-17T13:58:02.053Z,6.70
2023-02-17T14:00:31.627Z,6.80
2023-02-17T14:03:07.434Z,6.80
2023-02-17T14:05:41.470Z,6.80
2023-02-17T14:08:18.438Z,6.70
2023-02-17T14:10:47.355Z,6.70
2023-02-17T14:13:17.244Z,6.70
2023-02-17T14:15:54.325Z,6.70
2023-02-17T14:18:35.423Z,6.70
2023-02-17T14:21:12.037Z,6.70
2023-02-17T14:23:49.149Z,6.70
2023-02-17T14:26:30.530Z,6.70
2023-02-17T14:29:02.182Z,6.70
2023-02-17T14:31:30.839Z,6.70
2023-02-17T14:34:01.561Z,6.70
2023-02-17T14:36:35.740Z,6.80
2023-02-17T14:39:06.304Z,6.70
2023-02-17T14:41:34.769Z,6.80
2023-02-17T14:44:06.108Z,6.70
2023-02-17T14:46:34.772Z,6.80
2023-02-17T14:49:03.153Z,6.70
2023-02-17T14:51:35.188Z,6.70
2023-02-17T14:54:04.582Z,6.70
2023-02-17T14:56:35.925Z,6.70
2023-02-17T14:59:05.697Z,6.70
2023-02-17T15:01:33.948Z,6.70
2023-02-17T15:04:02.930Z,6.80
2023-02-17T15:06:37.448Z,6.80
2023-02-17T15:09:06.200Z,6.80
2023-02-17T15:11:37.546Z,6.80
2023-02-17T15:14:08.171Z,6.80
2023-02-17T15:16:36.591Z,6.80
2023-02-17T15:19:04.831Z,6.80
2023-02-17T15:21:34.872Z,6.80
2023-02-17T15:24:04.438Z,6.80
2023-02-17T15:26:34.148Z,6.80
2023-02-17T15:29:02.319Z,6.80
2023-02-17T15:31:35.400Z,6.80
2023-02-17T15:34:03.746Z,6.80
2023-02-17T15:36:32.871Z,6.80
2023-02-17T15:39:01.214Z,6.80
2023-02-17T15:41:31.744Z,6.80
2023-02-17T15:44:00.145Z,6.80
2023-02-17T15:46:34.298Z,6.80
2023-02-17T15:49:02.587Z,6.80
2023-02-17T15:51:30.777Z,6.80
2023-02-17T15:53:59.408Z,6.80
2023-02-17T15:56:31.253Z,6.80
2023-02-17T15:59:01.153Z,6.70
2023-02-17T16:01:32.030Z,6.70
2023-02-17T16:04:01.900Z,6.80
2023-02-17T16:06:30.659Z,6.70
2023-02-17T16:08:59.822Z,6.70
2023-02-17T16:11:29.046Z,6.80
2023-02-17T16:13:57.714Z,6.80
2023-02-17T16:16:29.654Z,6.80
2023-02-17T16:18:57.997Z,6.80
2023-02-17T16:21:27.800Z,6.80
2023-02-17T16:23:59.839Z,6.80
2023-02-17T16:26:33.617Z,6.80
2023-02-17T16:29:03.729Z,6.80
2023-02-17T16:31:35.924Z,6.80
2023-02-17T16:34:04.201Z,6.80
2023-02-17T16:36:36.679Z,6.80
2023-02-17T16:39:12.101Z,6.80
2023-02-17T16:41:40.687Z,6.80
2023-02-17T16:44:09.648Z,6.80
2023-02-17T16:46:38.872Z,6.80
2023-02-17T16:49:19.760Z,6.80
2023-02-17T16:51:49.437Z,6.80
2023-02-17T16:54:19.055Z,6.90
2023-02-17T16:56:49.234Z,6.80
2023-02-17T16:59:20.200Z,6.80
2023-02-17T17:01:49.559Z,6.80
2023-02-17T17:04:18.175Z,6.90
2023-02-17T17:06:50.758Z,6.90
2023-02-17T17:09:21.386Z,6.90
2023-02-17T17:11:50.144Z,6.90
2023-02-17T17:14:20.637Z,6.90
2023-02-17T17:16:52.593Z,6.90
2023-02-17T17:19:21.418Z,6.90
2023-02-17T17:21:51.189Z,6.90
2023-02-17T17:24:19.647Z,6.90
2023-02-17T17:26:50.270Z,6.90
2023-02-17T17:29:21.098Z,6.90
2023-02-17T17:31:49.552Z,6.90
2023-02-17T17:34:17.830Z,7.00
2023-02-17T17:36:48.015Z,7.00
2023-02-17T17:39:19.747Z,7.00
2023-02-17T17:41:48.498Z,7.00
2023-02-17T17:44:17.008Z,7.00
2023-02-17T17:46:45.652Z,7.00
2023-02-17T17:49:17.985Z,7.00
2023-02-17T17:51:46.307Z,7.00
2023-02-17T17:54:14.584Z,7.00
2023-02-17T17:56:45.002Z,7.00
2023-02-17T17:59:14.648Z,7.10
2023-02-17T18:01:45.616Z,7.00
2023-02-17T18:04:14.582Z,7.10
2023-02-17T18:06:45.431Z,7.10
2023-02-17T18:09:30.885Z,7.10
2023-02-17T18:12:05.596Z,7.10
2023-02-17T18:14:34.284Z,7.10
2023-02-17T18:17:02.649Z,7.20
2023-02-17T18:19:31.857Z,7.20
2023-02-17T18:22:00.172Z,7.20
2023-02-17T18:24:28.768Z,7.20
2023-02-17T18:26:57.061Z,7.20
2023-02-17T18:29:27.766Z,7.30
2023-02-17T18:31:57.512Z,7.30
2023-02-17T18:34:26.042Z,7.40
2023-02-17T18:36:54.247Z,7.40
2023-02-17T18:39:22.494Z,7.40
2023-02-17T18:41:50.766Z,7.40
2023-02-17T18:44:19.363Z,7.40
2023-02-17T18:46:48.927Z,7.40
2023-02-17T18:49:17.259Z,7.50
2023-02-17T18:51:45.474Z,7.50
2023-02-17T18:54:14.179Z,7.50
2023-02-17T18:56:42.483Z,7.50
2023-02-17T18:59:10.794Z,7.50
2023-02-17T19:01:41.017Z,7.60
2023-02-17T19:04:12.026Z,7.60
2023-02-17T19:06:40.672Z,7.50
2023-02-17T19:09:09.009Z,7.60
2023-02-17T19:11:37.391Z,7.70
2023-02-17T19:14:08.598Z,7.70
2023-02-17T19:16:36.844Z,7.90
2023-02-17T19:19:05.561Z,7.80
2023-02-17T19:21:36.424Z,7.80
2023-02-17T19:24:05.108Z,7.80
2023-02-17T19:26:34.194Z,7.80
2023-02-17T19:29:02.453Z,7.80
2023-02-17T19:31:31.774Z,7.90
2023-02-17T19:34:00.112Z,7.90
2023-02-17T19:36:28.486Z,7.90
2023-02-17T19:38:59.035Z,7.90
2023-02-17T19:41:27.314Z,7.90
2023-02-17T19:43:55.553Z,8.00
2023-02-17T19:46:25.758Z,8.00
2023-02-17T19:48:54.090Z,8.00
2023-02-17T19:51:22.853Z,8.10
2023-02-17T19:53:51.582Z,8.10
2023-02-17T19:56:24.404Z,8.10
2023-02-17T19:58:53.532Z,8.10
2023-02-17T20:01:23.474Z,8.20
2023-02-17T20:03:54.000Z,8.20
2023-02-17T20:06:24.441Z,8.20
2023-02-17T20:08:55.058Z,8.30
2023-02-17T20:11:25.017Z,8.30
2023-02-17T20:13:53.491Z,8.30
2023-02-17T20:16:21.881Z,8.40
2023-02-17T20:18:51.410Z,8.40
2023-02-17T20:21:21.638Z,8.50
2023-02-17T20:23:50.614Z,8.50
2023-02-17T20:26:21.725Z,8.60
2023-02-17T20:28:52.056Z,8.60
2023-02-17T20:31:20.683Z,8.60
2023-02-17T20:33:49.397Z,8.60
2023-02-17T20:36:18.309Z,8.70
2023-02-17T20:38:46.902Z,8.70
2023-02-17T20:41:17.820Z,8.70
2023-02-17T20:43:46.651Z,8.70
2023-02-17T20:46:26.053Z,8.70
2023-02-17T20:48:55.345Z,8.80
2023-02-17T20:51:24.609Z,8.80
2023-02-17T20:53:53.240Z,8.80
2023-02-17T20:56:23.414Z,8.90
2023-02-17T20:58:52.659Z,8.90
2023-02-17T21:01:22.227Z,8.90
2023-02-17T21:03:50.712Z,8.90
2023-02-17T21:06:23.048Z,8.90
2023-02-17T21:08:53.323Z,8.90
2023-02-17T21:11:22.098Z,8.90
2023-02-17T21:13:50.815Z,8.90
2023-02-17T21:16:22.373Z,9.00
2023-02-17T21:18:50.710Z,9.00
2023-02-17T21:21:19.119Z,8.90
2023-02-17T21:23:47.968Z,8.90
2023-02-17T21:26:17.169Z,8.90
2023-02-17T21:28:46.968Z,8.90
2023-02-17T21:31:16.261Z,8.90
2023-02-17T21:33:46.238Z,8.80
2023-02-17T21:36:16.755Z,8.80
2023-02-17T21:38:45.676Z,8.90
2023-02-17T21:41:15.989Z,8.90
2023-02-17T21:44:02.586Z,8.90
2023-02-17T21:46:31.490Z,8.90
2023-02-17T21:49:02.572Z,8.90
2023-02-17T21:51:31.554Z,8.90
2023-02-17T21:54:00.322Z,8.90
2023-02-17T21:56:29.023Z,8.90
2023-02-17T21:58:57.605Z,8.90
2023-02-17T22:01:30.212Z,8.90
2023-02-17T22:03:58.780Z,8.90
2023-02-17T22:06:30.304Z,8.90
2023-02-17T22:08:59.946Z,8.80
2023-02-17T22:11:30.757Z,8.80
2023-02-17T22:14:00.383Z,8.70
2023-02-17T22:16:31.380Z,8.70
2023-02-17T22:38:06.336Z,8.30
2023-02-17T22:40:34.562Z,8.00
2023-02-17T22:43:02.800Z,7.90
2023-02-17T22:45:31.138Z,7.90
2023-02-17T22:47:59.367Z,7.80
2023-02-17T22:50:27.690Z,7.70
2023-02-17T22:52:55.925Z,7.60
2023-02-17T22:55:25.564Z,7.60
2023-02-17T22:57:53.792Z,7.50
2023-02-17T23:00:22.334Z,7.40
2023-02-17T23:02:50.573Z,7.50
2023-02-17T23:05:20.233Z,7.50
2023-02-17T23:07:48.474Z,7.40
2023-02-17T23:10:16.686Z,7.50
2023-02-17T23:12:46.362Z,7.30
2023-02-17T23:15:14.825Z,7.40
2023-02-17T23:17:57.952Z,7.40
2023-02-17T23:20:26.649Z,7.40
2023-02-17T23:22:54.843Z,7.30
2023-02-17T23:25:23.100Z,7.20
2023-02-17T23:27:52.702Z,7.30
2023-02-17T23:30:23.192Z,7.20
2023-02-17T23:32:51.616Z,7.30
2023-02-17T23:35:20.024Z,7.20
2023-02-17T23:37:50.179Z,7.20
2023-02-17T23:40:19.335Z,7.20
2023-02-17T23:42:47.640Z,7.40
2023-02-17T23:45:17.427Z,7.50
2023-02-17T23:47:45.646Z,7.50
2023-02-17T23:50:16.197Z,7.60
2023-02-17T23:52:45.293Z,7.60
2023-02-17T23:55:13.563Z,7.50
2023-02-17T23:57:41.770Z,7.50
